createdAt,value
2022-08-20T00:02:13.461Z,88.76
2022-08-20T00:04:41.225Z,89.29
2022-08-20T00:07:08.773Z,89.93
2022-08-20T00:09:36.674Z,89.88
2022-08-20T00:12:05.199Z,90.38
2022-08-20T00:14:33.875Z,91.18
2022-08-20T00:17:03.075Z,91.04
2022-08-20T00:19:30.636Z,91.19
2022-08-20T00:21:58.702Z,91.71
2022-08-20T00:24:26.708Z,91.89
2022-08-20T00:26:54.260Z,91.49
2022-08-20T00:29:22.450Z,91.42
2022-08-20T00:31:50.379Z,92.03
2022-08-20T00:34:19.495Z,92.34
2022-08-20T00:36:47.050Z,92.23
2022-08-20T00:39:14.609Z,92.45
2022-08-20T00:41:42.194Z,92.81
2022-08-20T00:44:13.239Z,92.79
2022-08-20T00:46:41.207Z,93.18
2022-08-20T00:49:09.838Z,93.99
2022-08-20T00:51:40.961Z,94.35
2022-08-20T00:54:12.019Z,95.09
2022-08-20T00:56:40.738Z,95.60
2022-08-20T00:59:11.610Z,95.70
2022-08-20T01:01:54.933Z,95.98
2022-08-20T01:04:25.087Z,96.50
2022-08-20T01:06:54.323Z,97.15
2022-08-20T01:09:50.231Z,97.57
2022-08-20T01:12:10.563Z,97.72
2022-08-20T01:14:43.642Z,98.01
2022-08-20T01:17:14.785Z,98.60
2022-08-20T01:19:44.168Z,98.94
2022-08-20T01:22:32.919Z,99.33
2022-08-20T01:25:05.147Z,99.90
2022-08-20T01:27:34.994Z,100.00
2022-08-20T01:30:10.632Z,100.00
2022-08-20T01:32:38.298Z,100.00
2022-08-20T01:35:06.590Z,100.00
2022-08-20T01:37:34.244Z,100.00
2022-08-20T01:40:02.991Z,100.00
2022-08-20T01:42:33.990Z,100.00
2022-08-20T01:45:04.229Z,100.00
2022-08-20T01:47:33.666Z,100.00
2022-08-20T01:50:08.954Z,100.00
2022-08-20T01:52:41.295Z,100.00
2022-08-20T01:55:09.456Z,100.00
2022-08-20T01:57:38.182Z,100.00
2022-08-20T02:00:19.058Z,100.00
2022-08-20T02:02:49.348Z,100.00
2022-08-20T02:05:16.896Z,100.00
2022-08-20T02:07:44.489Z,100.00
2022-08-20T02:10:13.680Z,100.00
2022-08-20T02:12:41.620Z,100.00
2022-08-20T02:15:11.622Z,100.00
2022-08-20T02:17:39.942Z,100.00
2022-08-20T02:20:11.709Z,100.00
2022-08-20T02:22:49.233Z,100.00
2022-08-20T02:25:18.837Z,100.00
2022-08-20T02:27:48.678Z,100.00
2022-08-20T02:30:28.248Z,100.00
2022-08-20T02:32:56.360Z,100.00
2022-08-20T02:35:24.227Z,100.00
2022-08-20T02:37:52.635Z,100.00
2022-08-20T02:40:27.258Z,100.00
2022-08-20T02:42:59.454Z,100.00
2022-08-20T02:45:28.997Z,100.00
2022-08-20T02:47:57.625Z,100.00
2022-08-20T02:50:26.019Z,100.00
2022-08-20T02:52:53.606Z,100.00
2022-08-20T02:55:27.735Z,100.00
2022-08-20T02:57:58.636Z,100.00
2022-08-20T03:00:30.560Z,100.00
2022-08-20T03:03:06.312Z,100.00
2022-08-20T03:05:34.028Z,100.00
2022-08-20T03:08:01.566Z,100.00
2022-08-20T03:10:30.406Z,100.00
2022-08-20T03:12:59.701Z,100.00
2022-08-20T03:15:28.856Z,100.00
2022-08-20T03:17:56.924Z,100.00
2022-08-20T03:20:25.078Z,100.00
2022-08-20T03:22:53.457Z,100.00
2022-08-20T03:25:21.338Z,100.00
2022-08-20T03:27:53.967Z,100.00
2022-08-20T03:30:21.981Z,100.00
2022-08-20T03:32:50.899Z,100.00
2022-08-20T03:35:19.380Z,100.00
2022-08-20T03:37:48.465Z,100.00
2022-08-20T03:40:17.993Z,100.00
2022-08-20T03:42:45.587Z,100.00
2022-08-20T03:45:17.113Z,100.00
2022-08-20T03:47:47.478Z,100.00
2022-08-20T03:50:23.740Z,100.00
2022-08-20T03:52:51.479Z,100.00
2022-08-20T03:55:19.050Z,100.00
2022-08-20T03:57:46.960Z,100.00
2022-08-20T04:00:15.893Z,100.00
2022-08-20T04:02:43.445Z,100.00
2022-08-20T04:05:11.037Z,100.00
2022-08-20T04:07:40.423Z,100.00
2022-08-20T04:10:09.828Z,100.00
2022-08-20T04:12:40.839Z,100.00
2022-08-20T04:15:18.642Z,100.00
2022-08-20T04:17:47.645Z,100.00
2022-08-20T04:20:18.317Z,100.00
2022-08-20T04:22:58.519Z,100.00
2022-08-20T04:25:26.544Z,100.00
2022-08-20T04:27:54.556Z,100.00
2022-08-20T04:30:25.560Z,100.00
2022-08-20T04:32:53.224Z,100.00
2022-08-20T04:35:24.323Z,100.00
2022-08-20T04:37:58.749Z,100.00
2022-08-20T04:40:43.781Z,100.00
2022-08-20T04:43:12.381Z,100.00
2022-08-20T04:45:40.259Z,100.00
2022-08-20T04:48:11.676Z,100.00
2022-08-20T04:50:43.782Z,100.00
2022-08-20T04:53:13.361Z,100.00
2022-08-20T04:55:42.665Z,100.00
2022-08-20T04:58:12.442Z,100.00
2022-08-20T05:00:40.161Z,100.00
2022-08-20T05:03:08.015Z,100.00
2022-08-20T05:05:36.115Z,100.00
2022-08-20T05:08:04.086Z,100.00
2022-08-20T05:10:32.993Z,100.00
2022-08-20T05:13:00.558Z,100.00
2022-08-20T05:15:28.125Z,100.00
2022-08-20T05:17:57.213Z,100.00
2022-08-20T05:20:24.977Z,100.00
2022-08-20T05:22:54.397Z,100.00
2022-08-20T05:25:21.970Z,100.00
2022-08-20T05:27:50.857Z,100.00
2022-08-20T05:30:20.111Z,100.00
2022-08-20T05:32:49.220Z,100.00
2022-08-20T05:35:16.996Z,100.00
2022-08-20T05:37:45.893Z,100.00
2022-08-20T05:40:14.956Z,100.00
2022-08-20T05:42:43.334Z,100.00
2022-08-20T05:45:12.555Z,100.00
2022-08-20T05:47:42.914Z,100.00
2022-08-20T05:50:11.388Z,100.00
2022-08-20T05:52:48.337Z,100.00
2022-08-20T05:55:16.152Z,100.00
2022-08-20T05:57:45.660Z,100.00
2022-08-20T06:00:15.600Z,100.00
2022-08-20T06:03:00.589Z,100.00
2022-08-20T06:05:28.335Z,100.00
2022-08-20T06:08:07.312Z,100.00
2022-08-20T06:10:36.158Z,100.00
2022-08-20T06:13:03.930Z,100.00
2022-08-20T06:15:32.999Z,100.00
2022-08-20T06:18:06.151Z,100.00
2022-08-20T06:20:51.388Z,100.00
2022-08-20T06:23:19.984Z,100.00
2022-08-20T06:25:50.117Z,100.00
2022-08-20T06:28:17.841Z,100.00
2022-08-20T06:30:46.974Z,100.00
2022-08-20T06:33:14.503Z,100.00
2022-08-20T06:35:42.179Z,100.00
2022-08-20T06:38:10.629Z,100.00
2022-08-20T06:40:38.222Z,100.00
2022-08-20T06:43:09.791Z,100.00
2022-08-20T06:45:38.898Z,100.00
2022-08-20T06:48:08.965Z,100.00
2022-08-20T06:50:43.248Z,100.00
2022-08-20T06:53:16.347Z,100.00
2022-08-20T06:55:48.626Z,100.00
2022-08-20T06:58:26.788Z,100.00
2022-08-20T07:01:09.948Z,100.00
2022-08-20T07:03:54.146Z,98.83
2022-08-20T07:06:22.817Z,92.61
2022-08-20T07:08:50.401Z,88.90
2022-08-20T07:11:18.011Z,81.94
2022-08-20T07:13:45.536Z,80.06
2022-08-20T07:16:13.170Z,69.92
2022-08-20T07:18:42.112Z,66.06
2022-08-20T07:21:09.678Z,65.33
2022-08-20T07:23:37.229Z,57.62
2022-08-20T07:26:05.464Z,52.21
2022-08-20T07:28:33.014Z,48.58
2022-08-20T07:31:20.296Z,50.66
2022-08-20T07:33:50.476Z,55.95
2022-08-20T07:36:19.574Z,47.46
2022-08-20T07:38:47.996Z,47.81
2022-08-20T07:41:15.776Z,46.53
2022-08-20T07:43:45.140Z,47.70
2022-08-20T07:46:13.556Z,44.22
2022-08-20T07:48:42.293Z,46.07
2022-08-20T07:51:11.767Z,47.47
2022-08-20T07:53:42.370Z,46.51
2022-08-20T07:56:12.798Z,44.80
2022-08-20T07:58:42.563Z,45.32
2022-08-20T08:01:10.674Z,45.42
2022-08-20T08:03:48.889Z,43.85
2022-08-20T08:06:29.198Z,43.70
2022-08-20T08:08:58.878Z,40.44
2022-08-20T08:11:26.510Z,39.50
2022-08-20T08:13:54.567Z,41.62
2022-08-20T08:16:22.203Z,40.81
2022-08-20T08:18:51.255Z,38.95
2022-08-20T08:21:22.340Z,39.77
2022-08-20T08:23:50.288Z,41.05
2022-08-20T08:26:19.409Z,41.57
2022-08-20T08:28:47.524Z,40.70
2022-08-20T08:31:15.763Z,40.05
2022-08-20T08:33:43.597Z,40.14
2022-08-20T08:36:12.341Z,39.27
2022-08-20T08:38:44.184Z,38.14
2022-08-20T08:41:14.725Z,38.24
2022-08-20T08:43:43.129Z,37.52
2022-08-20T08:46:11.961Z,37.58
2022-08-20T08:48:44.423Z,40.60
2022-08-20T08:51:12.937Z,37.67
2022-08-20T08:53:43.369Z,40.05
2022-08-20T08:56:11.503Z,40.43
2022-08-20T08:58:40.008Z,41.27
2022-08-20T09:01:52.928Z,39.80
2022-08-20T09:04:00.327Z,39.97
2022-08-20T09:06:28.239Z,37.93
2022-08-20T09:08:59.003Z,39.95
2022-08-20T09:11:26.981Z,35.80
2022-08-20T09:13:55.180Z,38.44
2022-08-20T09:16:23.297Z,36.03
2022-08-20T09:18:51.410Z,40.76
2022-08-20T09:21:20.579Z,39.00
2022-08-20T09:23:48.325Z,41.06
2022-08-20T09:26:17.317Z,41.08
2022-08-20T09:28:47.892Z,44.03
2022-08-20T09:31:20.042Z,44.76
2022-08-20T09:33:51.357Z,46.03
2022-08-20T09:36:31.731Z,41.20
2022-08-20T09:39:00.545Z,45.22
2022-08-20T09:41:34.317Z,43.93
2022-08-20T09:44:02.414Z,40.89
2022-08-20T09:46:29.981Z,43.35
2022-08-20T09:48:59.537Z,40.51
2022-08-20T09:51:27.539Z,41.99
2022-08-20T09:53:55.889Z,41.39
2022-08-20T09:56:25.209Z,40.05
2022-08-20T09:58:57.191Z,41.55
2022-08-20T10:01:26.839Z,39.13
2022-08-20T10:03:54.401Z,41.43
2022-08-20T10:06:21.985Z,41.07
2022-08-20T10:08:50.139Z,44.00
2022-08-20T10:11:18.332Z,42.35
2022-08-20T10:13:45.916Z,44.43
2022-08-20T10:16:15.564Z,43.78
2022-08-20T10:18:43.134Z,44.50
2022-08-20T10:21:11.771Z,44.90
2022-08-20T10:23:40.544Z,46.00
2022-08-20T10:26:08.492Z,42.74
2022-08-20T10:28:36.342Z,46.58
2022-08-20T10:31:06.363Z,45.11
2022-08-20T10:33:37.048Z,45.84
2022-08-20T10:36:07.229Z,49.54
2022-08-20T10:38:34.768Z,46.67
2022-08-20T10:41:02.369Z,43.78
2022-08-20T10:43:30.305Z,46.31
2022-08-20T10:45:58.209Z,48.89
2022-08-20T10:48:26.096Z,51.02
2022-08-20T10:50:55.697Z,49.98
2022-08-20T10:53:25.968Z,50.04
2022-08-20T10:55:54.371Z,49.92
2022-08-20T10:58:24.020Z,48.34
2022-08-20T11:00:52.073Z,48.68
2022-08-20T11:03:20.024Z,49.64
2022-08-20T11:05:48.067Z,50.29
2022-08-20T11:08:33.763Z,50.54
2022-08-20T11:11:02.323Z,50.76
2022-08-20T11:13:29.883Z,51.22
2022-08-20T11:15:57.644Z,51.49
2022-08-20T11:18:25.209Z,52.46
2022-08-20T11:20:52.797Z,52.40
2022-08-20T11:23:21.988Z,50.56
2022-08-20T11:25:49.929Z,49.23
2022-08-20T11:28:31.229Z,49.10
2022-08-20T11:31:00.648Z,48.42
2022-08-20T11:33:28.331Z,46.85
2022-08-20T11:35:55.873Z,50.23
2022-08-20T11:38:24.893Z,49.09
2022-08-20T11:40:52.570Z,49.68
2022-08-20T11:43:20.206Z,47.31
2022-08-20T11:45:50.586Z,48.38
2022-08-20T11:48:18.261Z,49.66
2022-08-20T11:50:45.945Z,48.04
2022-08-20T11:53:14.866Z,48.21
2022-08-20T11:55:44.303Z,46.59
2022-08-20T11:58:12.108Z,48.98
2022-08-20T12:00:39.805Z,48.69
2022-08-20T12:03:09.459Z,50.46
2022-08-20T12:05:37.435Z,50.53
2022-08-20T12:08:05.307Z,49.95
2022-08-20T12:10:33.134Z,49.74
2022-08-20T12:13:02.734Z,48.02
2022-08-20T12:15:32.437Z,48.86
2022-08-20T12:18:00.907Z,49.19
2022-08-20T12:20:29.040Z,49.49
2022-08-20T12:22:59.136Z,51.16
2022-08-20T12:25:26.846Z,48.95
2022-08-20T12:27:54.708Z,49.15
2022-08-20T12:30:25.439Z,49.88
2022-08-20T12:32:53.554Z,50.02
2022-08-20T12:35:21.941Z,47.47
2022-08-20T12:37:49.780Z,46.80
2022-08-20T12:40:24.528Z,46.77
2022-08-20T12:43:00.625Z,48.63
2022-08-20T12:45:29.952Z,48.93
2022-08-20T12:48:02.121Z,48.58
2022-08-20T12:50:32.031Z,48.85
2022-08-20T12:52:59.919Z,48.64
2022-08-20T12:55:27.993Z,48.53
2022-08-20T12:57:57.338Z,49.60
2022-08-20T13:00:26.646Z,49.94
2022-08-20T13:02:57.069Z,51.06
2022-08-20T13:05:25.233Z,51.81
2022-08-20T13:07:54.022Z,53.55
2022-08-20T13:10:23.371Z,55.74
2022-08-20T13:12:51.252Z,58.95
2022-08-20T13:15:18.911Z,60.39
2022-08-20T13:17:46.479Z,59.85
2022-08-20T13:20:17.103Z,60.44
2022-08-20T13:22:45.599Z,60.04
2022-08-20T13:25:14.701Z,59.41
2022-08-20T13:27:43.404Z,58.56
2022-08-20T13:30:12.474Z,58.71
2022-08-20T13:32:40.039Z,58.21
2022-08-20T13:35:07.985Z,56.54
2022-08-20T13:37:36.968Z,57.14
2022-08-20T13:40:05.804Z,55.95
2022-08-20T13:42:33.483Z,57.38
2022-08-20T13:45:01.018Z,58.46
2022-08-20T13:47:29.668Z,57.69
2022-08-20T13:49:57.745Z,56.33
2022-08-20T13:52:25.336Z,54.64
2022-08-20T13:54:55.054Z,53.35
2022-08-20T13:57:23.763Z,49.55
2022-08-20T13:59:52.330Z,46.81
2022-08-20T14:02:20.425Z,50.33
2022-08-20T14:04:48.781Z,50.34
2022-08-20T14:07:17.624Z,47.76
2022-08-20T14:09:46.060Z,49.27
2022-08-20T14:12:15.390Z,49.09
2022-08-20T14:14:43.389Z,49.27
2022-08-20T14:17:15.123Z,49.23
2022-08-20T14:19:43.227Z,49.50
2022-08-20T14:22:10.803Z,51.03
2022-08-20T14:24:38.348Z,51.69
2022-08-20T14:27:06.113Z,50.60
2022-08-20T14:29:36.909Z,52.42
2022-08-20T14:32:05.246Z,52.84
2022-08-20T14:34:33.173Z,52.76
2022-08-20T14:37:10.160Z,52.25
2022-08-20T14:39:37.765Z,50.05
2022-08-20T14:42:05.888Z,51.83
2022-08-20T14:44:38.503Z,52.45
2022-08-20T14:47:16.550Z,52.09
2022-08-20T14:49:45.936Z,51.55
2022-08-20T14:52:13.827Z,52.29
2022-08-20T14:54:41.836Z,50.60
2022-08-20T14:57:13.433Z,50.39
2022-08-20T14:59:43.033Z,52.57
2022-08-20T15:02:11.658Z,52.00
2022-08-20T15:04:39.268Z,52.63
2022-08-20T15:07:14.778Z,51.91
2022-08-20T15:09:44.030Z,52.80
2022-08-20T15:12:11.580Z,53.57
2022-08-20T15:14:39.385Z,54.21
2022-08-20T15:17:10.565Z,53.42
2022-08-20T15:19:38.120Z,52.50
2022-08-20T15:22:05.835Z,52.76
2022-08-20T15:24:33.371Z,52.68
2022-08-20T15:27:10.599Z,53.67
2022-08-20T15:29:38.173Z,54.82
2022-08-20T15:32:07.137Z,53.34
2022-08-20T15:34:36.053Z,53.88
2022-08-20T15:37:07.350Z,54.54
2022-08-20T15:39:34.966Z,54.44
2022-08-20T15:42:02.861Z,54.62
2022-08-20T15:44:31.166Z,53.39
2022-08-20T15:47:13.390Z,53.57
2022-08-20T15:49:43.158Z,54.88
2022-08-20T15:52:12.755Z,54.53
2022-08-20T15:54:41.315Z,54.99
2022-08-20T15:57:12.810Z,53.50
2022-08-20T15:59:57.565Z,55.21
2022-08-20T16:02:55.350Z,55.43
2022-08-20T16:05:29.022Z,55.92
2022-08-20T16:08:03.125Z,56.99
2022-08-20T16:10:34.493Z,56.73
2022-08-20T16:13:03.650Z,57.65
2022-08-20T16:15:32.727Z,57.43
2022-08-20T16:18:04.066Z,58.58
2022-08-20T16:20:35.883Z,58.25
2022-08-20T16:23:04.452Z,59.23
2022-08-20T16:25:35.313Z,59.91
2022-08-20T16:28:05.814Z,59.84
2022-08-20T16:30:38.133Z,60.25
2022-08-20T16:33:09.133Z,60.42
2022-08-20T16:35:42.751Z,60.86
2022-08-20T16:38:20.862Z,60.79
2022-08-20T16:40:51.196Z,59.96
2022-08-20T16:43:21.723Z,61.02
2022-08-20T16:45:51.636Z,61.58
2022-08-20T16:48:20.095Z,62.16
2022-08-20T16:50:53.800Z,62.86
2022-08-20T16:53:22.615Z,62.57
2022-08-20T16:55:50.166Z,62.61
2022-08-20T16:58:17.847Z,61.47
2022-08-20T17:00:45.971Z,62.60
2022-08-20T17:03:33.546Z,62.94
2022-08-20T17:06:15.719Z,63.95
2022-08-20T17:08:48.427Z,66.25
2022-08-20T17:11:24.611Z,67.06
2022-08-20T17:14:02.533Z,67.48
2022-08-20T17:16:33.569Z,68.30
2022-08-20T17:19:08.494Z,69.69
2022-08-20T17:21:38.815Z,71.44
2022-08-20T17:24:10.338Z,72.25
2022-08-20T17:26:45.938Z,73.39
2022-08-20T17:29:14.915Z,74.83
2022-08-20T17:31:44.106Z,76.37
2022-08-20T17:34:15.116Z,76.15
2022-08-20T17:36:50.924Z,77.53
2022-08-20T17:39:19.355Z,77.59
2022-08-20T17:41:48.500Z,77.52
2022-08-20T17:44:21.794Z,78.06
2022-08-20T17:46:49.944Z,78.87
2022-08-20T17:49:19.231Z,81.62
2022-08-20T17:51:48.470Z,81.85
2022-08-20T17:54:22.136Z,81.77
2022-08-20T17:56:53.278Z,83.65
2022-08-20T17:59:33.679Z,83.61
2022-08-20T18:02:14.178Z,83.28
2022-08-20T18:04:41.826Z,84.43
2022-08-20T18:07:12.930Z,84.69
2022-08-20T18:09:46.697Z,84.44
2022-08-20T18:12:24.242Z,83.64
2022-08-20T18:15:06.895Z,82.97
2022-08-20T18:17:46.025Z,83.89
2022-08-20T18:20:25.780Z,84.71
2022-08-20T18:22:56.501Z,85.87
2022-08-20T18:25:31.230Z,86.55
2022-08-20T18:28:04.027Z,86.95
2022-08-20T18:30:33.070Z,87.72
2022-08-20T18:33:03.085Z,87.08
2022-08-20T18:35:33.998Z,87.03
2022-08-20T18:38:12.450Z,86.33
2022-08-20T18:40:41.665Z,87.07
2022-08-20T18:43:13.842Z,87.25
2022-08-20T18:45:41.775Z,87.96
2022-08-20T18:48:20.633Z,87.81
2022-08-20T18:50:53.278Z,88.13
2022-08-20T18:53:24.970Z,88.59
2022-08-20T18:56:02.866Z,89.63
2022-08-20T18:58:31.272Z,90.50
2022-08-20T19:00:59.144Z,90.57
2022-08-20T19:03:31.071Z,90.51
2022-08-20T19:06:18.564Z,91.21
2022-08-20T19:08:50.594Z,91.38
2022-08-20T19:11:33.022Z,90.70
2022-08-20T19:14:10.507Z,90.91
2022-08-20T19:16:40.586Z,91.42
2022-08-20T19:19:14.658Z,92.51
2022-08-20T19:21:42.745Z,94.13
2022-08-20T19:24:12.582Z,94.94
2022-08-20T19:26:42.444Z,96.07
2022-08-20T19:29:13.601Z,95.54
2022-08-20T19:31:41.656Z,95.01
2022-08-20T19:34:19.982Z,96.66
2022-08-20T19:36:54.093Z,97.09
2022-08-20T19:39:25.683Z,97.65
2022-08-20T19:41:57.344Z,97.79
2022-08-20T19:44:29.669Z,97.09
2022-08-20T19:46:57.641Z,97.53
2022-08-20T19:49:30.094Z,98.19
2022-08-20T19:52:08.995Z,97.63
2022-08-20T19:54:44.749Z,97.11
2022-08-20T19:57:12.389Z,98.18
2022-08-20T19:59:51.112Z,97.74
2022-08-20T20:02:20.519Z,98.08
2022-08-20T20:04:55.322Z,97.97
2022-08-20T20:07:25.191Z,98.38
2022-08-20T20:09:54.469Z,98.28
2022-08-20T20:12:23.210Z,98.07
2022-08-20T20:14:53.856Z,98.65
2022-08-20T20:17:23.731Z,98.96
2022-08-20T20:19:53.363Z,99.21
2022-08-20T20:22:25.102Z,99.06
2022-08-20T20:24:58.878Z,100.00
2022-08-20T20:27:28.714Z,100.00
2022-08-20T20:30:01.261Z,100.00
2022-08-20T20:32:28.922Z,100.00
2022-08-20T20:34:58.020Z,100.00
2022-08-20T20:37:46.691Z,99.56
2022-08-20T20:40:20.886Z,99.99
2022-08-20T20:42:57.736Z,99.95
2022-08-20T20:45:31.528Z,100.00
2022-08-20T20:47:59.196Z,100.00
2022-08-20T20:50:28.522Z,99.98
2022-08-20T20:52:56.624Z,100.00
2022-08-20T20:55:25.964Z,100.00
2022-08-20T20:57:54.102Z,100.00
2022-08-20T21:00:23.006Z,100.00
2022-08-20T21:02:52.239Z,100.00
2022-08-20T21:05:22.475Z,100.00
2022-08-20T21:07:53.775Z,100.00
2022-08-20T21:10:22.541Z,100.00
2022-08-20T21:12:52.852Z,100.00
2022-08-20T21:15:21.533Z,100.00
2022-08-20T21:17:49.186Z,100.00
2022-08-20T21:20:18.204Z,100.00
2022-08-20T21:22:45.812Z,100.00
2022-08-20T21:25:13.514Z,100.00
2022-08-20T21:27:44.440Z,100.00
2022-08-20T21:30:12.624Z,100.00
2022-08-20T21:32:40.227Z,100.00
2022-08-20T21:35:08.494Z,100.00
2022-08-20T21:37:37.712Z,100.00
2022-08-20T21:40:06.106Z,100.00
2022-08-20T21:42:33.740Z,100.00
2022-08-20T21:45:05.041Z,100.00
2022-08-20T21:47:32.607Z,100.00
2022-08-20T21:50:00.389Z,100.00
2022-08-20T21:52:27.931Z,100.00
2022-08-20T21:54:57.032Z,100.00
2022-08-20T21:57:26.694Z,100.00
2022-08-20T21:59:54.737Z,100.00
2022-08-20T22:02:25.317Z,100.00
2022-08-20T22:04:53.857Z,100.00
2022-08-20T22:07:22.211Z,100.00
2022-08-20T22:09:49.744Z,100.00
2022-08-20T22:12:20.499Z,100.00
2022-08-20T22:14:48.347Z,100.00
2022-08-20T22:17:16.221Z,100.00
2022-08-20T22:19:43.739Z,100.00
2022-08-20T22:22:12.011Z,100.00
2022-08-20T22:24:40.042Z,100.00
2022-08-20T22:27:07.783Z,100.00
2022-08-20T22:29:36.705Z,100.00
2022-08-20T22:32:05.184Z,100.00
2022-08-20T22:34:33.844Z,100.00
2022-08-20T22:37:02.236Z,100.00
2022-08-20T22:39:29.800Z,100.00
2022-08-20T22:41:57.531Z,100.00
2022-08-20T22:44:25.175Z,100.00
2022-08-20T22:46:56.889Z,100.00
2022-08-20T22:49:27.105Z,100.00
2022-08-20T22:51:54.911Z,100.00
2022-08-20T22:54:24.786Z,100.00
2022-08-20T22:56:53.209Z,100.00
2022-08-20T22:59:21.065Z,100.00
2022-08-20T23:01:48.890Z,100.00
2022-08-20T23:04:20.575Z,100.00
2022-08-20T23:06:48.215Z,100.00
2022-08-20T23:09:15.810Z,100.00
2022-08-20T23:11:49.118Z,100.00
2022-08-20T23:14:16.714Z,100.00
2022-08-20T23:16:46.097Z,100.00
2022-08-20T23:19:14.799Z,100.00
2022-08-20T23:21:43.699Z,100.00
2022-08-20T23:24:14.384Z,100.00
2022-08-20T23:26:44.717Z,100.00
2022-08-20T23:29:25.452Z,100.00
2022-08-20T23:31:53.673Z,100.00
2022-08-20T23:34:21.247Z,100.00
2022-08-20T23:36:52.302Z,100.00
2022-08-20T23:39:20.144Z,100.00
2022-08-20T23:41:48.256Z,100.00
2022-08-20T23:44:25.937Z,100.00
2022-08-20T23:46:55.353Z,100.00
2022-08-20T23:49:23.007Z,100.00
2022-08-20T23:51:52.150Z,100.00
2022-08-20T23:54:19.741Z,100.00
2022-08-20T23:56:47.476Z,100.00
2022-08-20T23:59:15.035Z,100.00
